Time;durP1;ratioP1;P1;durP2;ratioP2;P2;SDS_P1;SDS_P2;PMS_P1;PMS_P2;Temp;Humidity;BMP_temperature;BMP_pressure;BME280_temperature;BME280_humidity;BME280_pressure;Samples;Min_cycle;Max_cycle;Signal;HPM_P1;HPM_P2
2022/06/22 00:01:26;;;;;;;8.73;6.80;;;;;;;24.54;66.79;100433.28;5034332;28;20036;-83
2022/06/22 00:03:54;;;;;;;10.75;6.93;;;;;;;24.64;66.03;100450.13;5046192;28;20033;-84
2022/06/22 00:06:26;;;;;;;10.82;7.35;;;;;;;24.65;67.04;100451.00;5026881;28;20025;-83
2022/06/22 00:08:52;;;;;;;7.97;7.15;;;;;;;24.63;66.85;100456.34;5050175;28;20089;-83
2022/06/22 00:11:18;;;;;;;;;;;;;;;24.67;66.73;100463.44;5034786;28;20033;-84
2022/06/22 00:13:52;;;;;;;8.05;6.55;;;;;;;24.63;66.87;100472.38;5033162;28;20038;-83
2022/06/22 00:16:24;;;;;;;8.82;6.55;;;;;;;24.59;66.45;100465.28;5052535;28;20029;-83
2022/06/22 00:18:51;;;;;;;10.25;7.03;;;;;;;24.67;66.59;100467.91;5032227;28;20108;-83
2022/06/22 00:21:22;;;;;;;7.70;6.75;;;;;;;24.64;66.23;100458.13;5032309;28;20040;-82
2022/06/22 00:23:50;;;;;;;8.43;6.82;;;;;;;24.63;66.11;100461.69;5048651;28;20036;-83
2022/06/22 00:26:26;;;;;;;7.93;6.68;;;;;;;24.65;65.73;100472.38;5031064;28;20095;-82
2022/06/22 00:28:54;;;;;;;7.65;6.88;;;;;;;24.63;66.01;100464.34;5032160;28;20071;-82
2022/06/22 00:31:31;;;;;;;8.63;7.10;;;;;;;24.32;66.22;100408.53;5047987;28;20057;-82
2022/06/22 00:34:21;;;;;;;8.98;6.32;;;;;;;24.61;66.36;100455.47;5050846;28;20466;-82
2022/06/22 00:37:05;;;;;;;7.00;6.30;;;;;;;24.62;65.69;100464.38;5045334;28;20021;-82
2022/06/22 00:39:37;;;;;;;7.90;6.25;;;;;;;24.60;65.77;100459.06;5049656;28;20131;-82
2022/06/22 00:42:14;;;;;;;8.82;6.28;;;;;;;24.61;65.80;100473.28;5033041;28;20106;-82
2022/06/22 00:44:56;;;;;;;9.68;6.68;;;;;;;24.58;65.65;100467.06;5033252;28;20064;-83
2022/06/22 00:47:24;;;;;;;7.35;6.30;;;;;;;24.60;65.32;100476.88;5025158;28;20416;-83
2022/06/22 00:49:50;;;;;;;7.75;6.85;;;;;;;24.63;66.22;100475.03;5043236;28;20036;-83
2022/06/22 00:52:18;;;;;;;;;;;;;;;24.68;66.20;100481.25;5045745;28;20033;-82
2022/06/22 00:54:45;;;;;;;10.35;6.43;;;;;;;24.62;65.99;100478.63;5048222;28;19999;-82
2022/06/22 00:57:21;;;;;;;7.40;6.70;;;;;;;24.62;66.18;100489.31;5044622;28;20029;-81
2022/06/22 01:00:00;;;;;;;7.53;6.72;;;;;;;24.63;65.90;100496.41;5039988;28;20481;-83
2022/06/22 01:02:37;;;;;;;7.55;6.60;;;;;;;24.61;65.18;100491.97;5031536;28;20510;-83
2022/06/22 01:05:21;;;;;;;7.95;6.70;;;;;;;24.62;65.69;100493.72;5041938;28;20032;-83
2022/06/22 01:08:18;;;;;;;8.18;6.40;;;;;;;24.48;65.66;100470.69;5026149;28;20412;-83
2022/06/22 01:11:05;;;;;;;7.07;6.43;;;;;;;24.57;65.62;100496.44;5050884;28;20033;-82
2022/06/22 01:13:37;;;;;;;6.95;6.25;;;;;;;24.61;65.60;100508.88;5031278;28;20568;-82
2022/06/22 01:16:06;;;;;;;9.95;6.90;;;;;;;24.49;65.82;100500.97;5033887;28;20400;-83
2022/06/22 01:18:35;;;;;;;9.02;6.63;;;;;;;24.52;65.76;100501.81;5032492;28;20017;-82
2022/06/22 01:21:16;;;;;;;7.53;6.50;;;;;;;24.43;65.35;100487.66;5032899;28;20020;-83
2022/06/22 01:24:13;;;;;;;9.82;6.63;;;;;;;24.58;65.31;100519.59;5023556;28;20025;-82
2022/06/22 01:27:09;;;;;;;8.88;6.30;;;;;;;24.56;64.93;100518.72;5044317;28;20041;-82
2022/06/22 01:29:35;;;;;;;6.97;6.28;;;;;;;24.52;65.25;100509.84;5049732;28;20021;-83
2022/06/22 01:32:07;;;;;;;9.43;6.55;;;;;;;24.56;65.39;100508.91;5050600;28;20021;-82
2022/06/22 01:34:41;;;;;;;9.35;6.47;;;;;;;24.25;65.06;100465.50;5038366;28;20500;-83
2022/06/22 01:37:27;;;;;;;7.88;6.60;;;;;;;24.58;64.85;100517.81;5050298;28;20053;-83
2022/06/22 01:40:09;;;;;;;6.93;6.10;;;;;;;24.53;65.02;100506.28;5030251;28;20450;-83
2022/06/22 01:42:46;;;;;;;8.35;6.90;;;;;;;24.54;64.89;100516.06;5025266;28;20110;-83
2022/06/22 01:45:15;;;;;;;;;;;;;;;24.61;65.22;100518.69;5032751;28;20060;-83
2022/06/22 01:47:42;;;;;;;7.35;6.60;;;;;;;24.49;65.23;100509.88;5028196;28;20010;-83
2022/06/22 01:50:26;;;;;;;7.57;6.40;;;;;;;24.55;65.29;100517.84;5038178;28;20620;-83
2022/06/22 01:53:02;;;;;;;9.70;6.40;;;;;;;24.56;65.37;100534.72;5045745;28;20028;-83
2022/06/22 01:55:39;;;;;;;9.32;6.40;;;;;;;24.55;65.51;100531.19;5027180;28;20036;-82
2022/06/22 01:58:11;;;;;;;8.75;6.32;;;;;;;24.57;65.14;100529.41;5048698;28;20116;-82
2022/06/22 02:00:36;;;;;;;9.32;6.47;;;;;;;24.57;64.64;100536.50;5049970;28;20028;-82
2022/06/22 02:03:18;;;;;;;;;;;;;;;24.61;64.87;100542.72;5031626;28;20029;-85
2022/06/22 02:05:44;;;;;;;10.55;6.75;;;;;;;24.55;65.27;100540.97;5041251;28;20426;-85
2022/06/22 02:08:11;;;;;;;;;;;;;;;24.58;64.93;100552.50;5044699;28;20043;-86
2022/06/22 02:11:01;;;;;;;7.93;6.30;;;;;;;24.46;65.04;100535.66;5032156;28;19912;-85
2022/06/22 02:13:28;;;;;;;6.68;5.70;;;;;;;24.53;65.07;100559.69;5032480;28;20094;-85
2022/06/22 02:16:10;;;;;;;7.10;6.40;;;;;;;24.53;64.91;100567.69;5050741;28;20025;-85
2022/06/22 02:18:43;;;;;;;9.18;6.20;;;;;;;24.51;64.81;100571.25;5049052;28;20021;-84
2022/06/22 02:21:24;;;;;;;8.85;6.20;;;;;;;24.53;64.73;100573.03;5049420;28;20033;-85
2022/06/22 02:24:02;;;;;;;7.53;6.30;;;;;;;24.34;64.99;100549.94;5051332;28;20079;-85
2022/06/22 02:26:47;;;;;;;7.88;6.57;;;;;;;24.53;65.40;100580.13;5053750;28;20082;-85
2022/06/22 02:29:15;;;;;;;7.40;6.40;;;;;;;24.12;65.21;100517.19;5044886;28;20041;-85
2022/06/22 02:31:41;;;;;;;11.00;6.68;;;;;;;24.22;65.00;100555.41;5016330;28;20036;-85
2022/06/22 02:34:06;;;;;;;;;;;;;;;24.57;64.68;100603.25;5035577;28;20116;-85
2022/06/22 02:36:39;;;;;;;6.45;5.85;;;;;;;24.30;64.95;100577.56;5036755;28;19913;-85
2022/06/22 02:39:05;;;;;;;8.70;6.68;;;;;;;24.02;64.79;100534.13;5016996;28;20020;-85
2022/06/22 02:44:29;;;;;;;7.93;6.22;;;;;;;24.48;64.74;100606.81;5052185;28;20035;-85
2022/06/22 02:46:57;;;;;;;10.38;6.70;;;;;;;24.33;64.56;100574.88;5031887;28;20033;-85
2022/06/22 02:49:32;;;;;;;9.18;6.18;;;;;;;24.34;64.53;100580.22;5033423;28;20029;-85
2022/06/22 02:51:59;;;;;;;11.15;6.88;;;;;;;24.34;64.61;100577.56;5024617;28;20496;-85
2022/06/22 02:54:30;;;;;;;8.77;6.30;;;;;;;24.49;64.38;100611.31;5012503;28;20029;-86
2022/06/22 02:57:32;;;;;;;9.25;6.25;;;;;;;24.50;64.16;100615.75;5016868;28;20098;-85
2022/06/22 02:59:58;;;;;;;9.63;6.45;;;;;;;24.48;64.06;100609.50;5048617;28;20170;-86
2022/06/22 03:02:24;;;;;;;;;;;;;;;24.54;63.87;100613.94;5034385;28;20055;-84
2022/06/22 03:04:50;;;;;;;7.00;6.03;;;;;;;24.41;64.53;100605.09;5031573;28;19978;-86
2022/06/22 03:07:15;;;;;;;;;;;;;;;24.49;64.37;100626.41;5014951;28;20033;-86
2022/06/22 03:09:41;;;;;;;8.88;5.97;;;;;;;24.43;64.18;100611.31;5029391;28;19960;-86
2022/06/22 03:12:10;;;;;;;9.25;6.03;;;;;;;24.37;64.68;100616.69;5052755;28;20060;-85
2022/06/22 03:14:42;;;;;;;8.20;6.28;;;;;;;24.26;64.63;100597.19;5019384;28;20408;-86
2022/06/22 03:17:13;;;;;;;12.63;6.43;;;;;;;24.23;64.50;100594.50;5029849;28;20030;-86
2022/06/22 03:19:39;;;;;;;8.57;5.65;;;;;;;24.36;64.59;100621.13;5028499;28;20094;-86
2022/06/22 03:22:04;;;;;;;;;;;;;;;24.45;64.11;100638.88;5049890;28;20385;-85
2022/06/22 03:25:37;;;;;;;8.13;6.13;;;;;;;24.23;64.91;100635.41;5050741;28;19990;-85
2022/06/22 03:28:07;;;;;;;12.05;6.25;;;;;;;23.91;65.07;100598.19;4962089;28;20577;-85
2022/06/22 03:30:36;;;;;;;9.02;6.40;;;;;;;23.98;64.83;100610.59;4970264;28;20109;-85
2022/06/22 03:33:48;;;;;;;8.00;5.90;;;;;;;24.25;64.78;100641.63;5003143;28;20072;-85
2022/06/22 03:36:18;;;;;;;7.80;5.75;;;;;;;24.34;64.06;100633.59;5032522;28;20565;-85
2022/06/22 03:38:47;;;;;;;8.65;6.80;;;;;;;24.37;64.68;100635.38;5017412;28;20020;-84
2022/06/22 03:41:17;;;;;;;9.80;6.28;;;;;;;24.32;64.62;100638.06;5033986;28;20027;-84
2022/06/22 03:43:52;;;;;;;10.02;6.60;;;;;;;24.33;64.59;100649.63;5033992;28;20033;-83
2022/06/22 03:46:22;;;;;;;9.45;6.40;;;;;;;24.37;64.03;100654.03;5023479;28;20029;-84
2022/06/22 03:49:02;;;;;;;10.45;6.80;;;;;;;24.39;64.19;100663.81;5035252;28;20045;-83
2022/06/22 03:51:32;;;;;;;8.73;5.82;;;;;;;24.18;65.34;100667.44;5027460;28;20039;-82
2022/06/22 03:54:25;;;;;;;11.43;6.35;;;;;;;24.18;64.61;100663.91;5029923;28;20035;-84
2022/06/22 03:56:55;;;;;;;8.00;5.97;;;;;;;24.16;64.91;100673.69;5012113;28;20510;-84
2022/06/22 03:59:21;;;;;;;10.07;5.53;;;;;;;24.04;64.83;100663.06;5035249;28;20071;-83
2022/06/22 04:01:47;;;;;;;9.52;5.60;;;;;;;24.05;64.82;100657.72;5052493;28;20021;-83
2022/06/22 04:04:12;;;;;;;;;;;;;;;24.31;64.35;100670.09;5053227;28;20385;-84
2022/06/22 04:06:43;;;;;;;8.93;5.88;;;;;;;24.25;63.73;100662.97;5034737;28;19912;-83
2022/06/22 04:09:18;;;;;;;7.38;5.95;;;;;;;24.10;64.97;100655.91;5051773;28;20025;-83
2022/06/22 04:11:57;;;;;;;7.40;5.85;;;;;;;24.27;64.45;100679.88;5035207;28;20031;-84
2022/06/22 04:14:36;;;;;;;9.88;6.05;;;;;;;24.21;64.49;100677.22;5036462;28;20052;-85
2022/06/22 04:17:18;;;;;;;7.93;6.25;;;;;;;24.33;63.87;100686.97;5035357;28;20036;-84
2022/06/22 04:19:57;;;;;;;11.55;6.03;;;;;;;24.27;63.66;100671.88;5071293;28;20036;-82
2022/06/22 04:22:24;;;;;;;9.77;6.13;;;;;;;24.33;64.06;100681.63;5048687;28;20464;-84
2022/06/22 04:25:48;;;;;;;8.55;5.97;;;;;;;24.26;64.24;100682.56;5035357;28;20056;-83
2022/06/22 04:28:14;;;;;;;7.82;5.72;;;;;;;24.34;64.08;100681.66;4972060;28;20042;-84
2022/06/22 04:30:47;;;;;;;9.38;6.20;;;;;;;24.16;64.16;100665.69;4939318;28;20023;-83
2022/06/22 04:33:31;;;;;;;8.57;5.63;;;;;;;24.37;63.80;100688.75;4986293;28;20099;-83
2022/06/22 04:36:16;;;;;;;11.85;6.85;;;;;;;24.38;63.91;100691.41;5039166;28;20102;-83
2022/06/22 04:39:02;;;;;;;6.85;5.80;;;;;;;24.38;63.86;100691.41;5034252;28;20023;-83
2022/06/22 04:41:36;;;;;;;6.20;5.60;;;;;;;24.30;64.13;100689.63;5024465;28;20037;-84
2022/06/22 04:44:08;;;;;;;8.90;5.97;;;;;;;24.39;64.24;100694.97;5031285;28;20099;-83
2022/06/22 04:46:37;;;;;;;6.78;5.88;;;;;;;24.34;63.95;100686.97;5034629;28;20116;-83
2022/06/22 04:49:27;;;;;;;8.35;5.93;;;;;;;24.35;64.16;100682.53;5034057;28;20021;-83
2022/06/22 04:52:05;;;;;;;7.90;5.97;;;;;;;24.10;64.07;100645.25;5023076;28;20025;-83
2022/06/22 04:54:34;;;;;;;7.90;5.60;;;;;;;24.40;64.34;100683.38;5049556;28;20484;-83
2022/06/22 04:57:04;;;;;;;6.60;5.40;;;;;;;24.25;64.58;100672.78;5022045;28;20617;-84
2022/06/22 04:59:30;;;;;;;7.03;5.85;;;;;;;24.35;64.71;100686.06;5033841;28;20028;-84
2022/06/22 05:02:00;;;;;;;;;;;;;;;24.42;64.22;100683.38;5018360;28;20033;-84
2022/06/22 05:04:26;;;;;;;6.45;5.75;;;;;;;24.44;64.61;100682.47;5034002;28;19909;-84
2022/06/22 05:07:00;;;;;;;;;;;;;;;24.48;64.32;100686.91;5052352;28;20665;-83
2022/06/22 05:09:50;;;;;;;5.95;5.35;;;;;;;24.26;64.54;100658.56;5051553;28;19913;-84
2022/06/22 05:12:23;;;;;;;7.68;5.75;;;;;;;24.48;64.72;100700.25;5033973;28;20107;-83
2022/06/22 05:14:51;;;;;;;6.57;5.78;;;;;;;24.33;64.29;100676.31;5050717;28;20039;-83
2022/06/22 05:17:31;;;;;;;8.48;5.82;;;;;;;24.39;64.70;100685.16;5037209;28;20040;-83
2022/06/22 05:20:09;;;;;;;6.93;6.00;;;;;;;24.49;64.29;100710.09;5019547;28;20052;-83
2022/06/22 05:22:34;;;;;;;6.45;5.65;;;;;;;24.41;64.62;100684.28;5051583;28;20029;-84
2022/06/22 05:25:01;;;;;;;;;;;;;;;24.56;64.27;100708.28;5051466;28;20063;-82
2022/06/22 05:27:29;;;;;;;6.88;5.28;;;;;;;24.51;64.11;100708.31;5038771;28;19943;-82
2022/06/22 05:30:02;;;;;;;6.82;5.60;;;;;;;24.42;63.98;100697.59;5033191;28;20029;-81
2022/06/22 05:32:38;;;;;;;6.32;5.68;;;;;;;24.44;64.53;100701.16;5027167;28;20716;-83
2022/06/22 05:35:08;;;;;;;9.25;5.82;;;;;;;24.48;64.84;100716.28;5026464;28;20616;-83
2022/06/22 05:37:37;;;;;;;10.77;5.78;;;;;;;24.46;65.03;100702.03;5029506;28;20158;-82
2022/06/22 05:40:03;;;;;;;10.43;5.90;;;;;;;24.25;65.43;100683.44;5032264;28;20025;-85
2022/06/22 05:42:29;;;;;;;7.75;6.15;;;;;;;24.60;63.93;100722.50;5016205;28;20484;-82
2022/06/22 05:44:55;;;;;;;8.82;5.95;;;;;;;24.23;64.39;100675.44;5016843;28;20029;-83
2022/06/22 05:47:27;;;;;;;;;;;;;;;24.50;64.56;100725.19;5033242;28;20111;-82
2022/06/22 05:49:59;;;;;;;7.45;5.75;;;;;;;24.51;64.20;100720.72;5033611;28;20380;-82
2022/06/22 05:52:42;;;;;;;8.82;5.97;;;;;;;24.50;64.81;100727.88;5037404;28;20140;-82
2022/06/22 05:55:14;;;;;;;7.75;5.97;;;;;;;24.50;64.58;100730.53;5025913;28;20448;-83
2022/06/22 05:57:49;;;;;;;8.90;6.13;;;;;;;24.50;64.17;100727.00;5043181;28;20039;-81
2022/06/22 06:00:20;;;;;;;6.97;5.93;;;;;;;24.48;64.38;100723.41;5033131;28;20028;-82
2022/06/22 06:03:14;;;;;;;8.70;5.95;;;;;;;24.51;64.47;100734.09;5033367;28;20029;-82
2022/06/22 06:05:42;;;;;;;6.95;5.72;;;;;;;24.54;64.52;100726.97;5029945;28;20021;-82
2022/06/22 06:08:39;;;;;;;7.93;6.40;;;;;;;24.55;64.23;100725.16;5038075;28;20432;-81
2022/06/22 06:11:06;;;;;;;8.38;6.63;;;;;;;24.43;64.36;100698.53;5012246;28;20064;-84
2022/06/22 06:13:46;;;;;;;7.18;5.75;;;;;;;24.52;64.46;100734.09;5046653;28;20086;-80
2022/06/22 06:16:19;;;;;;;8.30;5.70;;;;;;;24.54;64.16;100734.09;5025110;28;20025;-82
2022/06/22 06:18:46;;;;;;;9.95;5.85;;;;;;;24.57;64.57;100734.97;5012268;28;20502;-81
2022/06/22 06:21:15;;;;;;;8.68;5.78;;;;;;;24.35;64.49;100709.22;5043614;28;20107;-82
2022/06/22 06:27:34;;;;;;;6.68;5.43;;;;;;;24.54;64.73;100736.75;5032757;28;20021;-82
2022/06/22 06:27:34;;;;;;;12.55;6.10;;;;;;;24.59;64.68;100748.28;4969735;28;20031;-81
2022/06/22 06:30:07;;;;;;;10.90;5.97;;;;;;;24.63;64.67;100736.72;4969612;28;20106;-80
2022/06/22 06:32:59;;;;;;;8.27;5.97;;;;;;;24.61;64.26;100735.81;5018046;28;20406;-81
2022/06/22 06:35:43;;;;;;;7.50;6.15;;;;;;;24.62;64.78;100742.03;5029473;28;20032;-81
2022/06/22 06:38:21;;;;;;;7.95;5.68;;;;;;;24.58;64.64;100727.84;5023419;28;20083;-81
2022/06/22 06:41:22;;;;;;;9.30;6.07;;;;;;;24.65;64.88;100736.72;5050092;28;20079;-82
2022/06/22 06:43:54;;;;;;;7.57;5.90;;;;;;;24.63;65.57;100739.38;5032013;28;20033;-81
2022/06/22 06:46:39;;;;;;;11.15;5.68;;;;;;;24.94;63.10;100741.91;5031105;28;20158;-83
2022/06/22 06:49:36;;;;;;;12.88;5.55;;;;;;;24.61;63.35;100740.28;5050420;28;20839;-81
2022/06/22 06:52:10;;;;;;;25.00;7.03;;;;;;;24.56;63.18;100749.19;5047257;28;20102;-82
2022/06/22 06:54:41;;;;;;;13.43;5.68;;;;;;;24.57;63.82;100744.75;5017578;28;20056;-82
2022/06/22 06:57:14;;;;;;;8.55;5.40;;;;;;;24.53;64.59;100742.97;5045762;28;20078;-81
2022/06/22 06:59:41;;;;;;;14.85;5.82;;;;;;;24.56;64.50;100754.53;5039406;28;20020;-82
2022/06/22 07:02:25;;;;;;;13.63;6.10;;;;;;;24.56;64.50;100748.31;5021600;28;20496;-80
2022/06/22 07:04:51;;;;;;;15.02;6.45;;;;;;;24.54;64.56;100751.00;5041646;28;20526;-82
2022/06/22 07:07:16;;;;;;;;;;;;;;;24.65;64.55;100750.06;5023662;28;20100;-81
2022/06/22 07:09:42;;;;;;;21.02;6.68;;;;;;;24.55;64.73;100746.53;5046744;28;20411;-84
2022/06/22 07:12:13;;;;;;;;;;;;;;;24.58;64.47;100751.88;5053794;28;20025;-82
2022/06/22 07:14:40;;;;;;;13.07;6.13;;;;;;;24.60;63.84;100747.41;5021977;28;19917;-82
2022/06/22 07:17:11;;;;;;;19.13;6.80;;;;;;;24.55;63.83;100733.19;5025855;28;20021;-81
2022/06/22 07:19:43;;;;;;;17.60;6.43;;;;;;;24.22;63.69;100678.13;5024063;28;20382;-82
2022/06/22 07:22:44;;;;;;;17.40;6.03;;;;;;;24.62;64.11;100740.28;5030923;28;20120;-82
2022/06/22 07:25:12;;;;;;;17.27;6.35;;;;;;;24.63;63.96;100744.72;5041004;28;20032;-82
2022/06/22 07:27:57;;;;;;;13.43;5.93;;;;;;;24.50;64.68;100725.19;5016292;28;20108;-83
2022/06/22 07:30:29;;;;;;;52.85;9.23;;;;;;;24.38;64.40;100712.78;5029193;28;20025;-81
2022/06/22 07:33:12;;;;;;;25.20;6.93;;;;;;;24.62;63.61;100750.06;5047701;28;20044;-81
2022/06/22 07:35:44;;;;;;;60.70;10.30;;;;;;;24.58;63.79;100742.06;5049331;28;20032;-82
2022/06/22 07:38:43;;;;;;;73.63;12.43;;;;;;;24.65;64.40;100763.41;5031389;28;20040;-82
2022/06/22 07:41:19;;;;;;;96.45;13.40;;;;;;;24.53;64.06;100743.88;5041447;28;20037;-81
2022/06/22 07:44:01;;;;;;;;;;;;;;;24.69;63.61;100758.06;5038355;28;20086;-83
2022/06/22 07:46:42;;;;;;;80.28;13.23;;;;;;;24.65;64.17;100766.97;5025241;28;19908;-83
2022/06/22 07:49:14;;;;;;;446.48;41.05;;;;;;;24.61;63.61;100765.19;5037120;28;20021;-81
2022/06/22 07:51:46;;;;;;;193.25;23.95;;;;;;;24.54;64.15;100753.66;5023533;28;20403;-81
2022/06/22 07:54:29;;;;;;;205.65;24.35;;;;;;;24.69;64.64;100775.88;5046331;28;20028;-83
2022/06/22 07:57:13;;;;;;;229.82;28.25;;;;;;;24.69;63.91;100776.75;5036007;28;20021;-82
2022/06/22 07:59:39;;;;;;;253.57;28.00;;;;;;;24.73;64.91;100780.28;5029544;28;20025;-83
2022/06/22 08:02:05;;;;;;;;;;;;;;;24.77;65.03;100779.41;5041880;28;20028;-83
2022/06/22 08:04:38;;;;;;;230.27;27.03;;;;;;;24.74;65.04;100769.63;5035416;28;19995;-83
2022/06/22 08:07:09;;;;;;;244.32;26.55;;;;;;;24.65;64.89;100763.41;5018796;28;20275;-82
2022/06/22 08:09:43;;;;;;;205.93;25.20;;;;;;;24.74;64.71;100777.63;5052002;28;20021;-83
2022/06/22 08:12:24;;;;;;;195.40;25.30;;;;;;;24.76;64.50;100777.59;5032292;28;20116;-83
2022/06/22 08:14:54;;;;;;;178.38;24.88;;;;;;;24.75;65.07;100770.50;5029385;28;20504;-82
2022/06/22 08:17:35;;;;;;;186.05;24.25;;;;;;;24.74;65.16;100785.66;5034525;28;20087;-83
2022/06/22 08:20:02;;;;;;;172.07;23.42;;;;;;;24.69;64.84;100763.38;5038218;28;20049;-82
2022/06/22 08:22:27;;;;;;;146.40;22.73;;;;;;;24.43;65.28;100733.22;5034510;28;20032;-83
2022/06/22 08:24:54;;;;;;;;;;;;;;;24.78;64.66;100778.47;5047220;28;20476;-83
2022/06/22 08:27:22;;;;;;;151.40;20.85;;;;;;;24.52;65.56;100746.56;5052612;28;19909;-83
2022/06/22 08:29:48;;;;;;;134.80;20.67;;;;;;;24.58;65.01;100758.09;5053030;28;20047;-82
2022/06/22 08:32:31;;;;;;;143.90;20.20;;;;;;;24.76;64.93;100777.59;5034583;28;20108;-83
2022/06/22 08:35:04;;;;;;;119.93;19.30;;;;;;;24.67;65.39;100765.19;5022549;28;20072;-83
2022/06/22 08:37:35;;;;;;;106.82;18.63;;;;;;;24.60;65.22;100757.22;5014132;28;20029;-83
2022/06/22 08:40:08;;;;;;;123.20;18.77;;;;;;;24.75;64.84;100779.38;5043562;28;20025;-83
2022/06/22 08:43:01;;;;;;;104.78;18.15;;;;;;;24.81;65.36;100777.56;5035112;28;20025;-82
2022/06/22 08:45:33;;;;;;;105.95;17.15;;;;;;;24.77;65.48;100780.28;5033905;28;20537;-82
2022/06/22 08:48:31;;;;;;;93.82;16.50;;;;;;;24.76;65.05;100773.16;5035948;28;20132;-83
2022/06/22 08:51:33;;;;;;;92.93;16.02;;;;;;;24.77;64.47;100771.38;5047218;28;20404;-82
2022/06/22 08:54:11;;;;;;;91.63;15.07;;;;;;;24.77;65.50;100768.72;5045714;28;20536;-82
2022/06/22 08:56:51;;;;;;;83.97;15.52;;;;;;;24.81;65.53;100772.22;5037316;28;20024;-83
2022/06/22 08:59:41;;;;;;;67.57;14.38;;;;;;;24.75;65.20;100774.06;5051792;28;20029;-82
2022/06/22 09:02:44;;;;;;;79.65;14.10;;;;;;;24.79;64.91;100762.47;5039913;28;20031;-83
2022/06/22 09:05:37;;;;;;;76.60;15.35;;;;;;;24.80;65.29;100763.34;5034150;28;20017;-83
2022/06/22 09:08:22;;;;;;;81.90;14.27;;;;;;;24.82;65.43;100761.56;5051403;28;20470;-83
2022/06/22 09:10:53;;;;;;;57.67;12.70;;;;;;;24.77;65.26;100753.56;5034262;28;20412;-82
2022/06/22 09:13:28;;;;;;;55.95;13.25;;;;;;;24.82;65.46;100758.00;5051997;28;20029;-82
2022/06/22 09:16:07;;;;;;;63.00;13.23;;;;;;;24.74;65.41;100748.25;5051812;28;20021;-82
2022/06/22 09:19:11;;;;;;;48.00;12.70;;;;;;;24.82;65.40;100747.31;5034105;28;20072;-82
2022/06/22 09:21:56;;;;;;;58.58;12.27;;;;;;;24.82;65.13;100755.31;5033738;28;20029;-82
2022/06/22 09:24:23;;;;;;;47.45;11.70;;;;;;;24.69;65.27;100727.78;5034015;28;20021;-82
2022/06/22 09:26:51;;;;;;;49.88;11.93;;;;;;;24.83;64.81;100751.75;5033766;28;20021;-82
2022/06/22 09:29:33;;;;;;;49.08;11.73;;;;;;;24.63;65.06;100715.34;5050735;28;20059;-82
2022/06/22 09:32:28;;;;;;;38.58;10.95;;;;;;;24.81;64.85;100735.75;5033593;28;20036;-81
2022/06/22 09:35:30;;;;;;;43.28;11.13;;;;;;;24.87;63.84;100754.41;5032647;28;20131;-82
2022/06/22 09:38:03;;;;;;;43.08;10.68;;;;;;;24.86;64.70;100733.06;5020857;28;20520;-82
2022/06/22 09:40:47;;;;;;;38.15;10.60;;;;;;;24.88;65.00;100737.47;5051210;28;20388;-82
2022/06/22 09:43:52;;;;;;;35.55;10.35;;;;;;;24.65;64.63;100694.00;5051748;28;20108;-82
2022/06/22 09:46:39;;;;;;;36.70;10.75;;;;;;;24.87;64.87;100738.41;5039280;28;20155;-82
2022/06/22 09:49:14;;;;;;;;;;;;;;;24.89;64.85;100738.38;5050881;28;20021;-84
2022/06/22 09:52:16;;;;;;;30.70;10.48;;;;;;;24.89;64.34;100736.59;5025113;28;19909;-83
2022/06/22 09:57:51;;;;;;;31.75;9.98;;;;;;;24.92;64.90;100744.59;5043386;28;20090;-84
2022/06/22 10:00:49;;;;;;;29.63;9.80;;;;;;;24.96;64.84;100740.13;5038211;28;20024;-84
2022/06/22 10:03:39;;;;;;;31.60;9.48;;;;;;;24.83;64.74;100714.34;5032277;28;20029;-85
2022/06/22 10:06:16;;;;;;;26.20;9.02;;;;;;;24.96;64.58;100743.66;5016833;28;20112;-83
2022/06/22 10:09:03;;;;;;;27.17;9.65;;;;;;;24.97;65.07;100742.75;5019489;28;20439;-84
2022/06/22 10:11:36;;;;;;;27.83;8.95;;;;;;;24.97;64.95;100744.56;5050415;28;20049;-84
2022/06/22 10:14:31;;;;;;;25.35;9.07;;;;;;;24.87;64.27;100717.03;5024985;28;20504;-83
2022/06/22 10:17:19;;;;;;;23.40;8.75;;;;;;;24.98;65.19;100746.34;5026718;28;20518;-83
2022/06/22 10:20:03;;;;;;;26.23;9.15;;;;;;;24.97;64.56;100750.78;5020684;28;20025;-82
2022/06/22 10:22:54;;;;;;;30.58;9.38;;;;;;;24.97;64.55;100740.09;5038512;28;20025;-83
2022/06/22 10:25:35;;;;;;;21.92;8.60;;;;;;;24.94;64.67;100745.47;4999816;28;20045;-83
2022/06/22 10:28:25;;;;;;;23.23;8.80;;;;;;;24.97;64.88;100740.09;5041268;28;20013;-83
2022/06/22 10:31:28;;;;;;;19.05;7.78;;;;;;;24.99;64.49;100743.63;5049322;28;20073;-84
2022/06/22 10:34:25;;;;;;;25.13;9.00;;;;;;;25.03;64.33;100740.97;5048641;28;20084;-85
2022/06/22 10:37:06;;;;;;;23.15;8.27;;;;;;;25.00;64.79;100739.22;5049512;28;20396;-83
2022/06/22 10:39:39;;;;;;;17.58;8.20;;;;;;;25.02;64.79;100737.41;5045663;28;20028;-83
2022/06/22 10:45:29;;;;;;;22.85;8.63;;;;;;;25.05;64.64;100736.50;5048630;28;20085;-83
2022/06/22 10:48:19;;;;;;;23.88;8.20;;;;;;;25.04;64.84;100735.63;5034915;28;20029;-85
2022/06/22 10:50:54;;;;;;;19.88;8.23;;;;;;;25.07;64.83;100734.72;5034852;28;20036;-82
2022/06/22 10:53:40;;;;;;;21.25;7.65;;;;;;;25.03;65.25;100725.81;5047472;28;20021;-82
2022/06/22 10:56:37;;;;;;;18.83;7.95;;;;;;;24.99;64.62;100716.94;5047427;28;20017;-82
2022/06/22 10:59:40;;;;;;;56.92;11.38;;;;;;;25.08;64.07;100726.69;5036279;28;20464;-82
2022/06/22 11:02:26;;;;;;;27.08;8.48;;;;;;;25.06;64.71;100723.16;5041999;28;20416;-83
2022/06/22 11:05:33;;;;;;;34.92;9.63;;;;;;;24.87;64.56;100698.31;5053300;28;20025;-82
2022/06/22 11:08:41;;;;;;;45.17;9.93;;;;;;;25.07;64.33;100726.69;5047285;28;20048;-82
2022/06/22 11:11:15;;;;;;;41.42;9.80;;;;;;;25.09;64.64;100719.56;5008732;28;20049;-83
2022/06/22 11:13:53;;;;;;;38.08;9.30;;;;;;;25.08;65.17;100710.66;5052653;28;20032;-83
2022/06/22 11:16:24;;;;;;;36.30;9.52;;;;;;;24.89;64.55;100683.19;5053456;28;20033;-82
2022/06/22 11:19:28;;;;;;;34.13;9.75;;;;;;;25.05;64.38;100713.34;5042862;28;20126;-82
2022/06/22 11:22:35;;;;;;;36.80;9.30;;;;;;;25.10;64.88;100716.84;5049768;28;20035;-83
2022/06/22 11:25:16;;;;;;;35.30;9.07;;;;;;;25.09;64.11;100706.19;5050607;28;20049;-81
2022/06/22 11:31:39;;;;;;;35.15;8.57;;;;;;;25.15;64.27;100709.72;5053393;28;20083;-82
2022/06/22 11:34:32;;;;;;;36.40;8.88;;;;;;;25.16;63.62;100707.91;4971059;28;20043;-82
2022/06/22 11:37:32;;;;;;;32.35;8.55;;;;;;;25.00;64.24;100685.78;4968966;28;20037;-83
2022/06/22 11:40:07;;;;;;;26.90;8.50;;;;;;;25.18;64.20;100700.78;5030048;28;20041;-82
2022/06/22 11:42:58;;;;;;;21.65;7.82;;;;;;;24.99;64.48;100675.97;5039819;28;21519;-83
2022/06/22 11:45:51;;;;;;;24.15;7.53;;;;;;;25.19;64.24;100695.44;5031230;28;20021;-82
2022/06/22 11:48:26;;;;;;;21.67;7.28;;;;;;;25.14;64.60;100694.56;5004152;28;20496;-82
2022/06/22 11:51:22;;;;;;;23.05;7.18;;;;;;;25.13;64.88;100698.16;5027482;28;20494;-87
2022/06/22 11:54:10;;;;;;;22.25;7.25;;;;;;;25.15;64.89;100704.38;5051888;28;20054;-83
2022/06/22 11:57:05;;;;;;;20.48;7.13;;;;;;;25.20;64.76;100693.66;5038273;28;20483;-83
2022/06/22 11:59:46;;;;;;;23.38;7.57;;;;;;;25.24;64.56;100683.84;5030605;28;20518;-82
2022/06/22 12:02:35;;;;;;;17.17;6.47;;;;;;;25.25;64.54;100685.63;5047501;28;20033;-82
2022/06/22 12:05:30;;;;;;;23.05;7.40;;;;;;;25.24;64.96;100690.06;5017435;28;20121;-84
2022/06/22 12:08:04;;;;;;;23.35;7.40;;;;;;;25.23;64.56;100687.41;5018406;28;20106;-83
2022/06/22 12:10:58;;;;;;;18.77;6.65;;;;;;;25.22;64.27;100683.84;5043472;28;20028;-82
2022/06/22 12:16:49;;;;;;;17.20;7.05;;;;;;;25.25;64.38;100666.91;5033528;28;20036;-83
2022/06/22 12:19:23;;;;;;;14.68;6.15;;;;;;;25.27;64.80;100673.13;5041605;28;20045;-83
2022/06/22 12:22:04;;;;;;;16.10;6.32;;;;;;;25.27;64.41;100673.13;5042804;28;20032;-83
2022/06/22 12:24:49;;;;;;;12.70;6.32;;;;;;;25.29;64.36;100674.00;5028045;28;20028;-83
2022/06/22 12:27:33;;;;;;;16.45;6.38;;;;;;;25.16;64.29;100647.34;5050063;28;20094;-83
2022/06/22 12:30:02;;;;;;;15.25;6.03;;;;;;;25.31;64.48;100667.72;5033559;28;20032;-82
2022/06/22 12:32:53;;;;;;;13.02;6.03;;;;;;;25.30;63.75;100662.44;5050979;28;20511;-83